Time;durP1;ratioP1;P1;durP2;ratioP2;P2;SDS_P1;SDS_P2;PMS_P1;PMS_P2;Temp;Humidity;BMP_temperature;BMP_pressure;BME280_temperature;BME280_humidity;BME280_pressure;Samples;Min_cycle;Max_cycle;Signal;HPM_P1;HPM_P2
2022/09/02 09:56:13;;;;;;;6.50;2.28;;;;;;;19.75;57.53;93906.19;4838190;29;20241;-92
2022/09/02 09:58:57;;;;;;;4.60;2.50;;;;;;;20.08;57.42;93907.38;4846127;29;20294;-92
2022/09/02 10:01:49;;;;;;;3.92;2.42;;;;;;;19.93;56.75;93908.28;4851012;29;20659;-93
2022/09/02 10:04:34;;;;;;;4.43;1.90;;;;;;;20.25;56.41;93911.50;4837915;29;20233;-93
2022/09/02 10:07:38;;;;;;;2.30;1.90;;;;;;;20.33;56.15;93912.56;4844061;29;20209;-95
2022/09/02 10:10:27;;;;;;;4.03;2.08;;;;;;;20.78;56.23;93916.94;4855334;29;20228;-93
2022/09/02 10:13:25;;;;;;;2.58;2.03;;;;;;;20.30;55.98;93910.28;4847956;29;20205;-93
2022/09/02 10:16:24;;;;;;;1.75;1.42;;;;;;;20.90;54.73;93918.06;4845024;29;20230;-92
2022/09/02 10:19:33;;;;;;;1.75;1.60;;;;;;;20.50;53.66;93908.88;4803073;29;20290;-92
2022/09/02 10:22:36;;;;;;;4.90;1.88;;;;;;;20.56;55.39;93909.09;4834416;29;20245;-91
2022/09/02 10:25:45;;;;;;;4.35;2.10;;;;;;;20.83;54.22;93907.13;4827249;29;20216;-92
2022/09/02 10:29:08;;;;;;;3.70;1.35;;;;;;;20.42;52.28;93902.19;4822501;29;20361;-91
2022/09/02 10:32:10;;;;;;;2.05;1.73;;;;;;;21.08;52.99;93900.09;4827185;29;20209;-92
2022/09/02 10:35:33;;;;;;;3.08;1.83;;;;;;;20.83;52.43;93890.75;4823178;29;20312;-95
2022/09/02 10:38:43;;;;;;;1.60;1.50;;;;;;;20.98;51.12;93894.81;4813476;29;20672;-92
2022/09/02 10:41:30;;;;;;;1.58;1.48;;;;;;;20.89;51.60;93898.78;4837345;29;20210;-90
2022/09/02 10:44:40;;;;;;;3.97;1.70;;;;;;;19.70;53.61;93893.22;4831207;29;20206;-94
2022/09/02 10:47:36;;;;;;;1.95;1.70;;;;;;;19.85;55.30;93885.22;4836697;29;20711;-93
2022/09/02 10:50:33;;;;;;;2.92;1.90;;;;;;;20.95;55.00;93887.56;4813967;29;20235;-92
2022/09/02 10:53:43;;;;;;;3.60;1.50;;;;;;;21.14;49.72;93889.59;4811579;29;20214;-89
2022/09/02 10:57:10;;;;;;;3.03;1.48;;;;;;;21.53;50.99;93882.28;4812410;29;20230;-92
2022/09/02 11:00:28;;;;;;;3.92;2.58;;;;;;;20.77;51.10;93884.88;4813347;29;20255;-91
2022/09/02 11:03:20;;;;;;;1.85;1.55;;;;;;;21.49;52.55;93882.84;4812522;29;20215;-90
2022/09/02 11:06:13;;;;;;;2.60;1.60;;;;;;;20.58;52.44;93877.84;4822275;29;20285;-91
2022/09/02 11:09:10;;;;;;;3.42;1.73;;;;;;;21.14;53.29;93872.50;4820601;29;20290;-91
2022/09/02 11:12:01;;;;;;;4.82;1.70;;;;;;;21.06;51.43;93877.94;4809309;29;20239;-91
2022/09/02 11:14:45;;;;;;;1.58;1.48;;;;;;;20.49;51.64;93873.25;4818871;29;20370;-92
2022/09/02 11:17:37;;;;;;;3.30;1.42;;;;;;;21.46;50.77;93877.78;4825858;29;20802;-92
2022/09/02 11:20:43;;;;;;;1.70;1.40;;;;;;;20.45;52.13;93870.28;4806267;29;20198;-92
2022/09/02 11:23:52;;;;;;;1.42;1.33;;;;;;;21.36;53.41;93876.06;4808634;29;20224;-90
2022/09/02 11:26:52;;;;;;;2.13;1.60;;;;;;;20.29;52.21;93864.03;4827303;29;20242;-91
2022/09/02 11:30:03;;;;;;;2.95;1.90;;;;;;;21.47;50.78;93856.44;4824495;29;20282;-92
2022/09/02 11:33:17;;;;;;;3.40;1.85;;;;;;;22.15;47.87;93872.69;4821754;29;20211;-88
2022/09/02 11:36:03;;;;;;;4.32;1.60;;;;;;;21.73;50.15;93872.16;4812054;29;20258;-89
2022/09/02 11:38:59;;;;;;;2.58;1.50;;;;;;;21.71;49.44;93868.53;4801912;29;20618;-89
2022/09/02 11:41:53;;;;;;;3.95;1.70;;;;;;;22.25;49.99;93871.47;4819906;29;21021;-90
2022/09/02 11:45:09;;;;;;;3.92;1.83;;;;;;;21.23;50.10;93857.13;4825581;29;20410;-91
2022/09/02 11:48:05;;;;;;;2.03;1.20;;;;;;;21.71;48.52;93868.53;4836290;29;20266;-90
2022/09/02 11:50:58;;;;;;;4.10;1.55;;;;;;;22.13;46.51;93866.91;4824668;29;20263;-90
2022/09/02 11:53:44;;;;;;;1.77;1.38;;;;;;;21.69;49.00;93860.66;4830507;29;20213;-92
2022/09/02 11:56:42;;;;;;;4.10;1.42;;;;;;;22.09;49.89;93861.09;4831976;29;20249;-90
2022/09/02 11:59:51;;;;;;;3.40;1.50;;;;;;;21.63;48.85;93866.19;4802906;29;20218;-90
2022/09/02 12:02:45;;;;;;;3.58;1.42;;;;;;;22.21;47.22;93866.41;4829998;29;20277;-92
2022/09/02 12:05:30;;;;;;;2.55;1.52;;;;;;;22.81;47.22;93860.81;4832160;29;20203;-91
2022/09/02 12:08:27;;;;;;;2.45;1.40;;;;;;;22.66;48.30;93868.25;4830460;29;20305;-91
2022/09/02 12:11:37;;;;;;;2.00;1.50;;;;;;;21.96;49.37;93862.16;4840884;29;20284;-91
2022/09/02 12:14:24;;;;;;;1.35;1.25;;;;;;;22.48;46.56;93864.94;4820126;29;20598;-90
2022/09/02 12:17:10;;;;;;;2.17;1.25;;;;;;;21.11;49.15;93862.44;4829917;29;20336;-92
2022/09/02 12:19:54;;;;;;;3.15;1.45;;;;;;;22.14;47.04;93873.34;4836114;29;20216;-92
2022/09/02 12:22:40;;;;;;;2.50;1.25;;;;;;;21.70;48.04;93864.22;4814839;29;20243;-92
2022/09/02 12:25:24;;;;;;;5.60;1.27;;;;;;;22.11;46.66;93869.69;4835958;29;20217;-90
2022/09/02 12:28:29;;;;;;;2.17;1.50;;;;;;;22.67;46.91;93858.31;4822880;29;20228;-91
2022/09/02 12:31:16;;;;;;;3.13;1.50;;;;;;;22.99;45.52;93858.41;4846691;29;20242;-91
2022/09/02 12:34:02;;;;;;;2.25;1.33;;;;;;;21.81;48.75;93854.56;4840516;29;20199;-91
2022/09/02 12:36:51;;;;;;;2.47;1.50;;;;;;;21.72;47.78;93858.59;4845381;29;20238;-91
2022/09/02 12:39:39;;;;;;;2.00;1.55;;;;;;;21.70;48.25;93850.69;4844784;29;20274;-92
2022/09/02 12:42:32;;;;;;;1.65;1.48;;;;;;;22.68;45.82;93848.34;4825413;29;20300;-91
2022/09/02 12:45:25;;;;;;;2.38;1.20;;;;;;;22.32;47.42;93842.44;4826367;29;20288;-90
2022/09/02 12:48:15;;;;;;;4.32;1.73;;;;;;;22.00;47.87;93848.00;4824810;29;20210;-88
2022/09/02 12:50:59;;;;;;;1.27;1.17;;;;;;;22.53;45.04;93844.38;4824363;29;20264;-89
2022/09/02 12:53:49;;;;;;;1.92;1.50;;;;;;;22.70;44.97;93851.25;4823075;29;20250;-89
2022/09/02 12:56:33;;;;;;;3.80;1.20;;;;;;;22.56;45.78;93833.75;4822756;29;20238;-91
2022/09/02 12:59:30;;;;;;;2.15;1.25;;;;;;;22.97;44.54;93839.06;4826168;29;20293;-89
2022/09/02 13:02:31;;;;;;;3.15;1.40;;;;;;;22.80;44.89;93837.22;4832716;29;20581;-91
2022/09/02 13:05:53;;;;;;;4.40;1.50;;;;;;;22.90;44.73;93846.03;4817293;29;20217;-89
2022/09/02 13:08:56;;;;;;;2.72;1.35;;;;;;;23.23;44.38;93841.06;4822689;29;20766;-90
2022/09/02 13:12:09;;;;;;;2.08;1.23;;;;;;;23.10;45.66;93834.34;4831039;29;20217;-90
2022/09/02 13:15:05;;;;;;;3.55;1.77;;;;;;;22.47;44.50;93835.66;4816720;29;20704;-90
2022/09/02 13:18:23;;;;;;;1.23;1.00;;;;;;;23.25;42.52;93832.56;4814627;29;20222;-91
2022/09/02 13:21:26;;;;;;;1.85;1.52;;;;;;;23.07;42.92;93830.00;4835925;29;20223;-91
2022/09/02 13:24:39;;;;;;;3.95;1.63;;;;;;;22.55;45.66;93826.56;4823001;29;20237;-90
2022/09/02 13:27:51;;;;;;;4.57;1.30;;;;;;;22.48;44.62;93816.41;4812584;29;20218;-91
2022/09/02 13:30:39;;;;;;;2.42;1.17;;;;;;;22.62;44.13;93816.75;4819724;29;20691;-90
2022/09/02 13:33:25;;;;;;;2.40;1.58;;;;;;;23.27;44.87;93812.56;4834949;29;20209;-89
2022/09/02 13:36:10;;;;;;;2.03;1.30;;;;;;;23.09;44.46;93815.03;4818607;29;20217;-91
2022/09/02 13:38:54;;;;;;;1.83;1.23;;;;;;;23.27;46.35;93812.56;4832655;29;20213;-90
2022/09/02 13:41:38;;;;;;;2.08;1.50;;;;;;;22.93;44.83;93816.13;4834482;29;20217;-90
2022/09/02 13:44:25;;;;;;;1.33;1.23;;;;;;;22.85;43.51;93812.34;4820121;29;20213;-89
2022/09/02 13:47:18;;;;;;;1.33;1.23;;;;;;;22.87;42.54;93810.25;4822149;29;20213;-92
2022/09/02 13:50:05;;;;;;;2.17;1.20;;;;;;;23.28;44.26;93802.59;4823219;29;20218;-90
2022/09/02 13:52:57;;;;;;;1.20;1.10;;;;;;;22.02;44.74;93810.97;4827300;29;20363;-90
2022/09/02 13:55:48;;;;;;;2.38;1.55;;;;;;;22.70;44.55;93808.41;4830135;29;20298;-90
2022/09/02 13:58:51;;;;;;;1.60;1.20;;;;;;;23.17;43.50;93809.50;4816518;29;20235;-88
2022/09/02 14:01:38;;;;;;;2.38;1.35;;;;;;;23.34;42.86;93811.31;4823796;29;20218;-90
2022/09/02 14:04:22;;;;;;;4.30;1.67;;;;;;;23.68;40.96;93802.75;4822966;29;20344;-89
2022/09/02 14:07:09;;;;;;;4.13;1.10;;;;;;;22.93;43.19;93787.53;4816203;29;20213;-92
2022/09/02 14:09:53;;;;;;;2.20;1.48;;;;;;;23.25;42.35;93796.13;4812751;29;20210;-92
2022/09/02 14:12:38;;;;;;;3.13;1.30;;;;;;;23.33;42.53;93798.44;4828244;29;20787;-90
2022/09/02 14:15:29;;;;;;;1.50;1.10;;;;;;;23.16;43.06;93796.59;4823521;29;20239;-91
2022/09/02 14:18:20;;;;;;;2.03;1.45;;;;;;;23.40;42.23;93785.69;4814917;29;20618;-92
2022/09/02 14:21:24;;;;;;;1.85;1.30;;;;;;;22.72;42.32;93779.91;4827316;29;20289;-91
2022/09/02 14:24:12;;;;;;;2.50;1.33;;;;;;;23.28;43.01;93780.44;4824887;29;20276;-91
2022/09/02 14:26:59;;;;;;;3.70;1.30;;;;;;;23.30;43.03;93768.34;4827913;29;20202;-89
2022/09/02 14:29:45;;;;;;;1.38;1.27;;;;;;;22.17;45.80;93769.97;4830551;29;20245;-89
2022/09/02 14:32:29;;;;;;;2.88;1.35;;;;;;;22.55;44.23;93770.19;4832973;29;20221;-90
2022/09/02 14:35:17;;;;;;;4.95;1.58;;;;;;;21.90;45.05;93776.38;4828401;29;20220;-93
2022/09/02 14:38:02;;;;;;;2.50;1.30;;;;;;;21.85;45.69;93769.09;4835776;29;20308;-92
2022/09/02 14:40:46;;;;;;;1.88;1.38;;;;;;;22.17;44.46;93763.53;4822596;29;20355;-90
2022/09/02 14:43:49;;;;;;;4.47;1.30;;;;;;;22.35;44.87;93761.13;4820653;29;20332;-90
2022/09/02 14:46:36;;;;;;;3.30;1.70;;;;;;;22.52;44.92;93762.25;4827313;29;20293;-89
2022/09/02 14:49:32;;;;;;;2.53;1.30;;;;;;;22.65;43.54;93751.84;4821659;29;20202;-91
2022/09/02 14:52:24;;;;;;;1.13;1.00;;;;;;;21.95;45.55;93757.97;4822596;29;20213;-91
2022/09/02 14:55:43;;;;;;;1.30;1.20;;;;;;;22.57;45.66;93755.25;4815986;29;20325;-91
2022/09/02 14:58:27;;;;;;;3.85;1.33;;;;;;;22.97;43.15;93744.75;4824023;29;20210;-88
2022/09/02 15:01:13;;;;;;;1.85;1.10;;;;;;;22.13;44.35;93747.03;4811641;29;20242;-91
2022/09/02 15:03:57;;;;;;;1.40;0.93;;;;;;;22.10;44.97;93748.38;4813004;29;20297;-88
2022/09/02 15:06:42;;;;;;;3.53;1.20;;;;;;;22.83;42.40;93747.31;4813239;29;20314;-90
2022/09/02 15:09:27;;;;;;;1.52;1.02;;;;;;;22.47;44.04;93746.41;4820319;29;20245;-89
2022/09/02 15:12:13;;;;;;;1.70;1.10;;;;;;;22.49;44.20;93740.75;4828115;29;20237;-87
2022/09/02 15:14:58;;;;;;;2.45;1.20;;;;;;;22.94;42.05;93737.56;4820965;29;20240;-89
2022/09/02 15:17:43;;;;;;;1.50;1.40;;;;;;;21.87;44.79;93737.75;4823363;29;20325;-90
2022/09/02 15:20:27;;;;;;;1.58;1.15;;;;;;;22.02;44.77;93748.19;4829282;29;20295;-89
2022/09/02 15:23:11;;;;;;;1.70;1.10;;;;;;;22.33;44.15;93746.09;4829876;29;20291;-89
2022/09/02 15:25:55;;;;;;;2.72;1.30;;;;;;;22.16;45.00;93742.81;4828094;29;20487;-92
2022/09/02 15:28:40;;;;;;;4.18;1.00;;;;;;;22.80;42.66;93751.53;4858521;29;20217;-89
2022/09/02 15:31:25;;;;;;;1.30;1.20;;;;;;;21.90;43.90;93742.13;4831728;29;20238;-89
2022/09/02 15:34:10;;;;;;;5.35;1.00;;;;;;;22.43;44.67;93743.47;4838467;29;20298;-89
2022/09/02 15:36:56;;;;;;;1.67;1.17;;;;;;;22.10;44.52;93748.38;4842774;29;20375;-87
2022/09/02 15:39:40;;;;;;;1.85;1.50;;;;;;;22.58;43.56;93742.41;4846590;29;20365;-89
2022/09/02 15:42:25;;;;;;;1.13;1.10;;;;;;;22.11;46.78;93743.41;4835110;29;20276;-90
2022/09/02 15:45:09;;;;;;;1.15;0.93;;;;;;;22.38;44.82;93739.81;4829967;29;20222;-90
2022/09/02 15:47:58;;;;;;;1.10;1.00;;;;;;;22.10;45.02;93742.66;4827771;29;20318;-89
2022/09/02 15:50:43;;;;;;;2.38;1.40;;;;;;;22.05;44.12;93734.69;4821120;29;20209;-89
2022/09/02 15:53:28;;;;;;;1.45;1.10;;;;;;;22.00;44.48;93735.97;4843356;29;20692;-91
2022/09/02 15:56:22;;;;;;;1.30;1.20;;;;;;;21.70;47.00;93741.59;4825368;29;20245;-90
2022/09/02 15:59:11;;;;;;;2.30;1.10;;;;;;;21.45;46.48;93748.03;4824558;29;20233;-91
2022/09/02 16:01:57;;;;;;;3.42;1.00;;;;;;;21.14;46.20;93747.13;4819421;29;20218;-92
2022/09/02 16:04:41;;;;;;;2.55;1.02;;;;;;;21.42;46.88;93746.53;4812908;29;20836;-90
2022/09/02 16:07:26;;;;;;;1.35;1.20;;;;;;;21.27;46.24;93740.44;4825010;29;20250;-92
2022/09/02 16:10:10;;;;;;;2.55;1.00;;;;;;;21.62;46.75;93747.06;4829244;29;20210;-90
2022/09/02 16:12:58;;;;;;;1.73;1.55;;;;;;;21.64;47.44;93732.88;4834319;29;20221;-90
2022/09/02 16:15:44;;;;;;;1.30;1.20;;;;;;;21.85;46.38;93729.16;4828685;29;20291;-90
2022/09/02 16:18:28;;;;;;;1.77;1.40;;;;;;;21.27;47.14;93737.56;4826159;29;20230;-93
2022/09/02 16:21:12;;;;;;;3.13;1.30;;;;;;;21.17;48.29;93740.13;4802655;29;20211;-92
2022/09/02 16:23:57;;;;;;;1.40;1.30;;;;;;;21.59;47.40;93731.31;4819289;29;20828;-91
2022/09/02 16:26:41;;;;;;;4.38;1.25;;;;;;;21.89;46.00;93728.53;4824706;29;20282;-91
2022/09/02 16:29:26;;;;;;;1.35;1.00;;;;;;;21.75;46.89;93732.47;4831801;29;20217;-90
2022/09/02 16:32:10;;;;;;;2.47;1.02;;;;;;;21.58;47.87;93735.56;4822994;29;20205;-90
2022/09/02 16:34:56;;;;;;;2.00;1.42;;;;;;;21.41;48.29;93728.69;4828926;29;20324;-92
2022/09/02 16:37:41;;;;;;;1.25;1.05;;;;;;;21.35;48.85;93725.69;4812449;29;20238;-89
2022/09/02 16:40:25;;;;;;;1.88;1.08;;;;;;;21.27;49.25;93726.19;4839870;29;20221;-91
2022/09/02 16:43:11;;;;;;;1.05;1.00;;;;;;;20.66;50.71;93728.59;4827691;29;20218;-91
2022/09/02 16:46:01;;;;;;;1.88;1.10;;;;;;;20.72;50.49;93731.63;4838855;29;20243;-91
2022/09/02 16:48:45;;;;;;;3.28;1.20;;;;;;;20.81;49.47;93727.63;4845020;29;20244;-91
2022/09/02 16:51:29;;;;;;;2.03;1.08;;;;;;;20.28;49.93;93714.59;4842467;29;20266;-91
2022/09/02 16:54:17;;;;;;;2.15;1.15;;;;;;;20.05;50.75;93720.97;4816017;29;20213;-89
2022/09/02 16:57:02;;;;;;;1.13;1.00;;;;;;;20.08;51.24;93722.47;4810941;29;20389;-91
2022/09/02 16:59:46;;;;;;;1.35;1.10;;;;;;;19.95;52.34;93723.47;4811812;29;20328;-94
2022/09/02 17:02:31;;;;;;;1.48;0.95;;;;;;;20.02;52.46;93727.97;4812330;29;20214;-91
2022/09/02 17:05:16;;;;;;;1.10;0.98;;;;;;;19.44;53.94;93707.53;4812809;29;21555;-90
2022/09/02 17:08:01;;;;;;;9.25;1.20;;;;;;;19.53;54.53;93712.13;4806927;29;20298;-91
2022/09/02 17:10:45;;;;;;;3.70;1.15;;;;;;;19.57;54.12;93709.41;4822688;29;20383;-91
2022/09/02 17:13:29;;;;;;;6.30;1.52;;;;;;;19.29;54.91;93702.72;4824455;29;20404;-90
2022/09/02 17:16:15;;;;;;;1.85;1.20;;;;;;;19.28;54.54;93695.56;4827347;29;20728;-90
2022/09/02 17:19:01;;;;;;;1.27;1.17;;;;;;;19.23;55.31;93705.34;4828708;29;20284;-90
2022/09/02 17:21:54;;;;;;;3.13;1.20;;;;;;;19.09;55.29;93713.34;4836870;29;20214;-88
2022/09/02 17:24:40;;;;;;;1.52;1.40;;;;;;;19.01;55.94;93713.06;4826363;29;20758;-91
2022/09/02 17:27:26;;;;;;;6.40;1.38;;;;;;;18.89;55.35;93713.34;4805284;29;20216;-91
2022/09/02 17:30:11;;;;;;;1.77;1.33;;;;;;;18.83;55.75;93711.00;4824742;29;20245;-91
2022/09/02 17:32:57;;;;;;;3.22;1.20;;;;;;;18.84;55.66;93712.47;4828698;29;20268;-93
2022/09/02 17:35:42;;;;;;;3.53;1.20;;;;;;;18.81;55.85;93708.09;4824302;29;20290;-91
2022/09/02 17:38:26;;;;;;;2.47;1.42;;;;;;;18.68;55.94;93705.47;4841850;29;20206;-90
2022/09/02 17:44:14;;;;;;;5.05;1.40;;;;;;;18.19;58.74;93712.81;4828396;29;20321;-91
2022/09/02 17:46:58;;;;;;;2.67;1.27;;;;;;;17.93;59.67;93708.91;4832582;29;20220;-91
2022/09/02 17:49:43;;;;;;;1.33;1.20;;;;;;;17.64;60.38;93723.28;4830567;29;20245;-91
2022/09/02 17:52:27;;;;;;;0.77;0.77;;;;;;;17.60;60.61;93725.91;4821546;29;20202;-93
2022/09/02 17:55:11;;;;;;;1.67;1.20;;;;;;;17.60;60.78;93731.59;4823770;29;20222;-93
2022/09/02 17:58:19;;;;;;;2.23;1.20;;;;;;;17.58;60.35;93723.00;4840798;29;20270;-91
2022/09/02 18:01:07;;;;;;;7.50;1.43;;;;;;;17.60;60.01;93720.25;4834886;29;20656;-92
2022/09/02 18:04:00;;;;;;;2.17;1.40;;;;;;;17.61;59.77;93727.41;4839016;29;20306;-91
2022/09/02 18:06:49;;;;;;;2.00;1.33;;;;;;;17.69;59.25;93722.09;4829645;29;20217;-92
2022/09/02 18:09:34;;;;;;;7.23;1.00;;;;;;;17.57;59.71;93718.72;4824844;29;20330;-89
2022/09/02 18:12:20;;;;;;;1.70;1.00;;;;;;;17.43;60.36;93712.44;4824215;29;20385;-90
2022/09/02 18:15:06;;;;;;;1.47;1.20;;;;;;;17.35;60.74;93722.06;4820319;29;20245;-89
2022/09/02 18:17:51;;;;;;;2.57;1.40;;;;;;;17.20;61.79;93724.94;4841971;29;20226;-92
2022/09/02 18:20:47;;;;;;;3.73;1.30;;;;;;;16.91;62.80;93729.31;4834208;29;20221;-91
2022/09/02 18:24:02;;;;;;;4.80;1.23;;;;;;;16.98;62.39;93733.16;4854927;29;20215;-92
2022/09/02 18:27:19;;;;;;;4.10;1.30;;;;;;;16.81;62.33;93725.31;4840921;29;20226;-92
2022/09/02 18:30:20;;;;;;;4.83;1.30;;;;;;;16.94;61.88;93733.72;4842862;29;20275;-89
2022/09/02 18:33:24;;;;;;;2.00;1.40;;;;;;;16.90;62.47;93738.47;4835360;29;20218;-91
2022/09/02 18:36:22;;;;;;;3.27;1.50;;;;;;;16.80;63.14;93735.91;4826972;29;20230;-92
2022/09/02 18:39:23;;;;;;;2.87;1.37;;;;;;;16.75;63.38;93734.28;4863855;29;20254;-90
2022/09/02 18:42:26;;;;;;;1.90;1.50;;;;;;;16.57;63.78;93747.56;4843226;29;20222;-93
2022/09/02 18:45:53;;;;;;;1.20;1.03;;;;;;;16.71;62.68;93750.34;4852302;29;20217;-92
2022/09/02 18:48:38;;;;;;;3.33;1.40;;;;;;;16.65;62.71;93752.91;4829293;29;20250;-92
2022/09/02 18:51:37;;;;;;;5.67;1.70;;;;;;;16.70;63.25;93751.69;4832018;29;20206;-92
2022/09/02 18:54:29;;;;;;;7.57;1.90;;;;;;;16.54;63.22;93758.03;4831131;29;20214;-92
2022/09/02 18:57:14;;;;;;;1.20;0.97;;;;;;;16.58;62.67;93761.06;4819550;29;20237;-91
2022/09/02 19:00:08;;;;;;;2.03;1.30;;;;;;;16.57;63.38;93770.19;4839757;29;20256;-91
2022/09/02 19:02:59;;;;;;;1.53;1.10;;;;;;;16.44;63.78;93768.88;4827537;29;20211;-91
2022/09/02 19:05:44;;;;;;;1.97;1.27;;;;;;;16.36;63.75;93762.84;4820277;29;20217;-92
2022/09/02 19:08:32;;;;;;;2.00;1.33;;;;;;;16.49;64.09;93756.38;4828703;29;20315;-92
2022/09/02 19:11:17;;;;;;;1.67;1.20;;;;;;;16.45;64.18;93761.88;4829518;29;20217;-91
2022/09/02 19:14:07;;;;;;;4.10;1.33;;;;;;;16.47;63.55;93749.94;4819162;29;20271;-91
2022/09/02 19:16:52;;;;;;;2.60;1.57;;;;;;;16.47;63.17;93756.31;4815398;29;20716;-92
2022/09/02 19:19:37;;;;;;;6.43;2.07;;;;;;;16.36;64.40;93768.50;4820114;29;20214;-92
2022/09/02 19:22:27;;;;;;;1.40;1.10;;;;;;;16.14;64.31;93771.00;4833102;29;20226;-94
2022/09/02 19:25:21;;;;;;;0.90;0.90;;;;;;;16.30;63.29;93765.38;4825916;29;20219;-92
2022/09/02 19:28:14;;;;;;;2.20;1.40;;;;;;;16.29;62.61;93766.78;4831071;29;20230;-92
2022/09/02 19:31:02;;;;;;;1.13;0.90;;;;;;;16.29;63.11;93758.28;4844831;29;20238;-93
2022/09/02 19:33:53;;;;;;;1.97;1.03;;;;;;;16.28;63.25;93762.47;4828056;29;20202;-93
2022/09/02 19:36:41;;;;;;;1.10;1.00;;;;;;;16.05;64.19;93768.41;4820844;29;20222;-93
2022/09/02 19:39:26;;;;;;;1.67;1.30;;;;;;;16.04;63.66;93762.03;4830817;29;20214;-91
2022/09/02 19:42:12;;;;;;;1.63;1.30;;;;;;;16.04;63.12;93761.31;4838551;29;20627;-91
2022/09/02 19:45:00;;;;;;;2.77;1.20;;;;;;;16.15;62.58;93766.09;4837057;29;20205;-92
2022/09/02 19:47:44;;;;;;;1.47;1.30;;;;;;;16.06;63.52;93764.97;4833376;29;20213;-91
2022/09/02 19:50:30;;;;;;;2.00;1.20;;;;;;;15.87;63.21;93759.03;4839956;29;20581;-91
2022/09/02 19:53:26;;;;;;;2.27;1.20;;;;;;;16.09;63.30;93762.97;4843929;29;20218;-91
2022/09/02 19:56:14;;;;;;;3.30;1.50;;;;;;;16.22;62.83;93762.19;4828794;29;20319;-93
2022/09/02 19:58:59;;;;;;;3.37;1.53;;;;;;;15.80;64.47;93760.13;4831293;29;20236;-91
2022/09/02 20:01:44;;;;;;;4.23;1.40;;;;;;;15.79;64.10;93753.75;4829092;29;20252;-92
2022/09/02 20:04:28;;;;;;;1.73;1.43;;;;;;;15.76;63.97;93755.72;4834035;29;20194;-91
2022/09/02 20:07:13;;;;;;;3.23;1.10;;;;;;;15.81;63.52;93750.28;4842521;29;20198;-93
2022/09/02 20:10:00;;;;;;;3.97;1.40;;;;;;;15.95;62.83;93767.94;4834182;29;20205;-91
2022/09/02 20:12:47;;;;;;;3.07;1.40;;;;;;;16.01;62.15;93759.75;4821900;29;20207;-91
2022/09/02 20:15:37;;;;;;;2.63;1.00;;;;;;;15.86;62.16;93743.47;4840595;29;20206;-91
2022/09/02 20:18:24;;;;;;;2.53;1.57;;;;;;;15.96;62.15;93760.91;4823637;29;20227;-92
2022/09/02 20:21:08;;;;;;;1.20;1.10;;;;;;;15.97;62.06;93748.25;4821905;29;20269;-90
2022/09/02 20:24:07;;;;;;;2.30;1.10;;;;;;;15.85;62.42;93756.13;4835891;29;20198;-88
2022/09/02 20:27:11;;;;;;;2.30;1.30;;;;;;;15.88;62.02;93754.84;4836136;29;20198;-90
2022/09/02 20:30:08;;;;;;;2.90;1.10;;;;;;;15.88;61.88;93760.50;4841729;29;20206;-89
2022/09/02 20:33:18;;;;;;;3.27;1.10;;;;;;;15.75;62.69;93764.84;4838515;29;20218;-91
2022/09/02 20:36:17;;;;;;;2.40;1.50;;;;;;;15.72;63.04;93761.19;4835890;29;20275;-91
2022/09/02 20:39:43;;;;;;;1.93;1.20;;;;;;;15.63;63.02;93756.50;4842195;29;20199;-90
2022/09/02 20:42:33;;;;;;;2.37;1.20;;;;;;;15.74;63.23;93749.97;4830322;29;20199;-92
2022/09/02 20:45:38;;;;;;;4.40;1.43;;;;;;;15.51;63.69;93747.38;4808199;29;20204;-91
2022/09/02 20:48:58;;;;;;;2.73;1.13;;;;;;;15.50;62.92;93734.63;4831604;29;20203;-92
2022/09/02 20:52:05;;;;;;;3.40;1.30;;;;;;;15.60;62.54;93726.69;4832466;29;20207;-90
2022/09/02 20:55:20;;;;;;;1.77;1.00;;;;;;;15.66;62.48;93735.47;4834578;29;20224;-91
2022/09/02 20:58:35;;;;;;;1.33;1.00;;;;;;;15.63;61.98;93741.63;4848641;29;20258;-91
2022/09/02 21:01:30;;;;;;;2.53;1.10;;;;;;;15.78;61.60;93747.38;4837636;29;20205;-91
2022/09/02 21:04:34;;;;;;;2.10;1.10;;;;;;;15.70;61.51;93734.94;4827543;29;20201;-92
2022/09/02 21:07:36;;;;;;;1.23;1.10;;;;;;;15.85;60.76;93750.50;4827095;29;20698;-91
2022/09/02 21:10:36;;;;;;;3.80;1.33;;;;;;;15.77;61.86;93740.25;4824280;29;20206;-90
2022/09/02 21:13:53;;;;;;;3.87;1.00;;;;;;;15.62;62.72;93749.38;4833169;29;20206;-91
2022/09/02 21:16:55;;;;;;;1.93;1.20;;;;;;;15.43;63.25;93740.63;4831919;29;20237;-91
2022/09/02 21:20:09;;;;;;;1.20;1.10;;;;;;;15.38;63.36;93734.00;4822410;29;20201;-90
2022/09/02 21:23:01;;;;;;;1.27;1.00;;;;;;;15.32;63.23;93725.25;4819631;29;20697;-91
2022/09/02 21:26:05;;;;;;;1.87;1.10;;;;;;;15.42;62.71;93742.69;4833639;29;20234;-90
2022/09/02 21:29:03;;;;;;;1.20;1.00;;;;;;;15.21;63.29;93726.09;4834418;29;20277;-91
2022/09/02 21:32:18;;;;;;;1.30;1.03;;;;;;;15.33;63.09;93743.66;4829712;29;20289;-91
2022/09/02 21:35:18;;;;;;;2.90;1.20;;;;;;;15.24;63.11;93734.03;4847968;29;20202;-91
2022/09/02 21:38:12;;;;;;;2.77;1.20;;;;;;;15.24;63.22;93730.50;4812761;29;20219;-91
2022/09/02 21:41:33;;;;;;;3.20;1.30;;;;;;;15.31;64.00;93743.53;4826800;29;20218;-90
2022/09/02 21:45:04;;;;;;;1.30;1.20;;;;;;;15.27;64.27;93749.72;4841004;29;20677;-92
2022/09/02 21:48:32;;;;;;;1.10;1.00;;;;;;;15.50;63.96;93750.84;4818475;29;20202;-90
2022/09/02 21:51:37;;;;;;;2.93;1.10;;;;;;;15.58;63.11;93749.19;4825313;29;20197;-91
2022/09/02 21:54:36;;;;;;;1.33;1.03;;;;;;;15.65;63.54;93739.66;4823145;29;20738;-92
2022/09/02 21:57:40;;;;;;;4.13;1.47;;;;;;;15.37;64.80;93743.84;4821851;29;20241;-91
2022/09/02 22:00:25;;;;;;;1.07;1.03;;;;;;;15.47;64.24;93738.72;4821997;29;20230;-91
2022/09/02 22:03:35;;;;;;;3.07;1.10;;;;;;;15.47;63.48;93730.25;4812980;29;20635;-91
2022/09/02 22:06:36;;;;;;;1.27;1.17;;;;;;;15.58;63.53;93728.69;4831374;29;20202;-90
2022/09/02 22:09:27;;;;;;;1.23;1.10;;;;;;;15.50;64.39;93726.16;4823410;29;20207;-90
2022/09/02 22:12:13;;;;;;;2.57;1.30;;;;;;;15.75;63.22;93720.38;4828200;29;20209;-91
2022/09/02 22:15:10;;;;;;;2.33;1.40;;;;;;;15.38;64.57;93722.72;4834312;29;20676;-91
2022/09/02 22:18:12;;;;;;;5.50;1.37;;;;;;;15.39;64.51;93724.91;4838615;29;20302;-92
2022/09/02 22:21:02;;;;;;;1.50;1.07;;;;;;;15.54;63.98;93728.50;4846305;29;20190;-93
2022/09/02 22:23:48;;;;;;;2.07;1.07;;;;;;;15.71;63.48;93733.56;4840442;29;20203;-94
2022/09/02 22:26:39;;;;;;;1.13;1.13;;;;;;;15.53;65.12;93735.50;4819386;29;20279;-92
2022/09/02 22:29:48;;;;;;;3.83;1.40;;;;;;;15.50;65.25;93734.63;4811170;29;20283;-93
2022/09/02 22:32:38;;;;;;;1.07;1.00;;;;;;;15.32;65.19;93733.72;4821786;29;20210;-93
2022/09/02 22:35:30;;;;;;;5.00;1.20;;;;;;;15.58;63.92;93728.69;4830563;29;20285;-93
2022/09/02 22:38:25;;;;;;;1.87;1.30;;;;;;;15.54;64.26;93723.56;4828921;29;20207;-91
2022/09/02 22:41:13;;;;;;;2.73;1.63;;;;;;;15.62;65.10;93734.53;4809532;29;20367;-91
2022/09/02 22:44:03;;;;;;;2.77;1.10;;;;;;;15.37;64.71;93730.47;4829569;29;20217;-92
2022/09/02 22:53:03;;;;;;;1.47;1.33;;;;;;;15.65;65.89;93739.66;4823824;29;20208;-90
2022/09/02 22:55:51;;;;;;;1.73;1.33;;;;;;;15.57;64.71;93727.94;4821492;29;20264;-90
2022/09/02 22:58:54;;;;;;;5.07;1.20;;;;;;;15.70;64.90;93730.00;4832314;29;20209;-91
2022/09/02 23:01:52;;;;;;;2.00;1.13;;;;;;;15.68;65.62;93727.06;4816782;29;20212;-90
2022/09/02 23:05:01;;;;;;;3.30;1.20;;;;;;;15.51;65.99;93721.97;4823101;29;20210;-90
2022/09/02 23:07:45;;;;;;;1.67;1.40;;;;;;;15.51;66.05;93724.78;4821016;29;20232;-92
2022/09/02 23:10:30;;;;;;;1.27;0.93;;;;;;;15.48;65.21;93726.06;4840998;29;20218;-90
2022/09/02 23:13:24;;;;;;;2.70;1.20;;;;;;;15.62;66.61;93738.06;4829233;29;20224;-92
2022/09/02 23:16:25;;;;;;;1.50;1.30;;;;;;;15.48;66.33;93728.88;4826677;29;20226;-91
2022/09/02 23:19:21;;;;;;;2.17;1.40;;;;;;;15.35;66.30;93724.00;4827456;29;20294;-93
2022/09/02 23:22:17;;;;;;;1.17;1.07;;;;;;;15.22;66.97;93716.28;4827726;29;20207;-93
2022/09/02 23:25:39;;;;;;;1.37;1.17;;;;;;;15.33;65.93;93721.06;4832217;29;20684;-94
2022/09/02 23:28:31;;;;;;;4.40;1.60;;;;;;;15.40;66.70;93725.66;4833846;29;20277;-93
2022/09/02 23:31:18;;;;;;;4.10;1.70;;;;;;;15.49;66.03;93719.03;4814792;29;20293;-95
2022/09/02 23:34:29;;;;;;;2.40;1.27;;;;;;;15.35;67.35;93721.91;4822750;29;20210;-90
2022/09/02 23:37:41;;;;;;;2.90;1.20;;;;;;;15.11;66.99;93717.84;4824539;29;20229;-92
2022/09/02 23:41:09;;;;;;;2.83;1.20;;;;;;;15.15;66.94;93722.97;4831826;29;20202;-92
2022/09/02 23:43:54;;;;;;;3.13;1.43;;;;;;;15.30;67.30;93733.63;4753481;30;20221;-93